• Join FlightAware (Why Join?)
  • Login
  • US Flag 
03:42PM EDT


 

Airport Tracker/Info


-or-


 

Live Flight TrackerFlight Track Log ✈ EJA831 ✈ 26-Jul-2013 ✈ KPDK - KGSO

Flight Track Log - Related Links

Times and Time Zones

All times are in EDT time to prevent confusion due to time zone crossing. See the EJA831 flight status page for this flight to view local times or setup timezone preferences in your user account.

Time Position Orientation Groundspeed Altitude Reporting Facility
EDT Latitude Longitude Course Direction KTS MPH feet Rate Location/Type
05:41PM 33.8500 -84.3000 54° Northeast 175 201 2,600  Level Atlanta TRACON
05:42PM 33.8500 -84.2333 90° East 218 251 3,700 1,500 Climbing Atlanta TRACON
05:43PM 33.8833 -84.1833 51° Northeast 225 259 5,600 2,040 Climbing Atlanta TRACON
05:44PM 33.9000 -84.1000 76° East 228 262 8,100 1,260 Climbing Atlanta TRACON
05:46PM 33.8506 -83.9789 116° Southeast 265 305 9,000 1,080 Climbing Atlanta Center
05:47PM 33.9009 -83.7430 54° Northeast  Level FlightAware Approximate
05:47PM 33.8483 -83.8836 92° East 278 320 10,900  Level Atlanta Center
05:48PM 33.8544 -83.7936 85° East 273 314 13,500 2,700 Climbing Atlanta Center
05:49PM 33.8378 -83.7186 105° East 267 307 16,300 2,880 Climbing Atlanta Center
05:50PM 33.8833 -83.6708 41° Northeast 207 238 19,300 2,280 Climbing Atlanta Center
05:51PM 33.9186 -83.6008 59° Northeast 217 250 20,900 840 Climbing Atlanta Center
05:52PM 33.9622 -83.5053 61° Northeast 286 329 21,000  Climbing Atlanta Center
05:53PM 34.0286 -83.4122 49° Northeast 341 392 21,000  Level Atlanta Center
05:54PM 34.0967 -83.3089 51° Northeast 380 437 21,000  Level Atlanta Center
05:55PM 34.1672 -83.2078 50° Northeast 393 452 21,000  Level Atlanta Center
05:56PM 34.2353 -83.1067 51° Northeast 400 460 21,000  Level Atlanta Center
05:57PM 34.3075 -83.0028 50° Northeast 383 441 21,000  Level Atlanta Center
05:58PM 34.3714 -82.9089 50° Northeast 370 426 21,000  Level Atlanta Center
05:59PM 34.4353 -82.8147 51° Northeast 355 409 21,000  Level Atlanta Center
06:00PM 34.4969 -82.7256 50° Northeast 355 409 21,000  Level Atlanta Center
06:01PM 34.5583 -82.6339 51° Northeast 355 409 21,000  Level Atlanta Center
06:02PM 34.6325 -82.5544 41° Northeast 350 403 21,000  Level Atlanta Center
06:03PM 34.7006 -82.4697 46° Northeast 345 397 21,000  Level Atlanta Center
06:04PM 34.7703 -82.3850 45° Northeast 345 397 21,000  Level Atlanta Center
06:05PM 34.8358 -82.3028 46° Northeast 345 397 21,000  Level Atlanta Center
06:06PM 34.9056 -82.2178 45° Northeast 345 397 21,000  Level Atlanta Center
06:07PM 34.9775 -82.1325 44° Northeast 350 403 21,000  Level Atlanta Center
06:08PM 35.0469 -82.0472 45° Northeast 345 397 21,000  Level Atlanta Center
06:09PM 35.1144 -81.9617 46° Northeast 340 391 21,000  Level Atlanta Center
06:10PM 35.1817 -81.8736 47° Northeast 345 397 21,000  Level Atlanta Center
06:11PM 35.2511 -81.7881 45° Northeast 345 397 21,000  Level Atlanta Center
06:12PM 35.3206 -81.7072 44° Northeast 345 397 21,000  Level Atlanta Center
06:13PM 35.3944 -81.6439 35° Northeast 345 397 21,000  Level Atlanta Center
06:14PM 35.4767 -81.5803 32° Northeast 352 405 21,000  Level Atlanta Center
06:15PM 35.5608 -81.5139 33° Northeast 352 405 21,000  Level Atlanta Center
06:16PM 35.6431 -81.4500 32° Northeast 352 405 21,000  Level Atlanta Center
06:17PM 35.7353 -81.3731 34° Northeast 352 405 21,000 -180 Level Atlanta Center
06:18PM 35.8192 -81.3061 33° Northeast 358 412 20,700 -960 Descending Atlanta Center
06:19PM 35.9072 -81.2339 34° Northeast 363 418 19,100 -1,560 Descending Atlanta Center
06:20PM 35.9975 -81.1592 34° Northeast 381 438 17,600 -1,500 Descending Atlanta Center
06:21PM 36.0875 -81.0864 33° Northeast 386 444 16,100 -1,500 Descending Atlanta Center
06:22PM 36.1606 -81.0014 43° Northeast 370 426 14,600 -1,380 Descending Atlanta Center
06:23PM 36.1619 -80.8933 89° East 327 376 13,400 -1,440 Descending Atlanta Center
06:24PM 36.1442 -80.7758 101° East 339 390 11,800 -1,200 Descending Atlanta Center
06:25PM 36.1306 -80.6581 98° East 339 390 11,000 -420 Descending Atlanta Center
06:26PM 36.1147 -80.5406 99° East 339 390 11,000 -420 Level Atlanta Center
06:27PM 36.1008 -80.4178 98° East 344 396 10,200 -900 Descending Atlanta Center
06:28PM 36.0872 -80.3156 99° East 320 368 9,200 -960 Descending Atlanta Center
06:29PM 36.0739 -80.2136 99° East 307 353 8,300 -960 Descending Atlanta Center
06:30PM 36.0961 -80.1250 73° East 272 313 7,300 -660 Descending Atlanta Center
06:31PM 36.1506 -80.0683 40° Northeast 267 307 7,000 -180 Descending Atlanta Center
06:32PM 36.2044 -79.9989 46° Northeast 267 307 7,000  Level Atlanta Center
06:34PM 36.1013 -79.9411 156° South  Level Estimated
06:41PM 36.1013 -79.9411 214° Southwest  Level Estimated
06:42PM 36.1013 -79.9411 214° Southwest  Level Estimated
06:43PM 36.1013 -79.9411 214° Southwest  Level Estimated
06:44PM 36.1013 -79.9411 214° Southwest  Level Estimated
06:45PM 36.1013 -79.9411 214° Southwest  Level Estimated
06:46PM 36.1013 -79.9411 214° Southwest  Level Estimated